createdAt,value
2022-08-17T00:01:51.999Z,43.56
2022-08-17T00:06:50.869Z,43.32
2022-08-17T00:12:43.683Z,43.39
2022-08-17T00:17:09.860Z,43.46
2022-08-17T00:22:34.870Z,43.48
2022-08-17T00:27:24.563Z,43.86
2022-08-17T00:33:15.572Z,43.75
2022-08-17T00:37:39.170Z,43.57
2022-08-17T00:42:37.101Z,43.20
2022-08-17T00:47:34.861Z,43.54
2022-08-17T00:52:37.119Z,43.68
2022-08-17T00:57:40.435Z,43.81
2022-08-17T01:02:42.917Z,43.55
2022-08-17T01:07:40.640Z,43.19
2022-08-17T01:12:38.440Z,42.80
2022-08-17T01:17:36.075Z,43.09
2022-08-17T01:22:33.742Z,43.19
2022-08-17T01:27:32.009Z,43.00
2022-08-17T01:32:30.217Z,43.08
2022-08-17T01:37:36.249Z,43.26
2022-08-17T01:42:39.851Z,43.15
2022-08-17T01:47:38.436Z,43.16
2022-08-17T01:52:35.880Z,43.33
2022-08-17T01:57:34.051Z,43.81
2022-08-17T02:02:32.990Z,44.00
2022-08-17T02:07:30.041Z,43.84
2022-08-17T02:12:39.416Z,44.06
2022-08-17T02:17:39.981Z,43.60
2022-08-17T02:22:39.572Z,44.17
2022-08-17T02:27:37.829Z,44.46
2022-08-17T02:32:35.744Z,44.57
2022-08-17T02:37:35.173Z,44.60
2022-08-17T02:42:37.742Z,45.06
2022-08-17T02:47:45.071Z,45.26
2022-08-17T02:52:45.079Z,45.22
2022-08-17T02:57:53.233Z,45.43
2022-08-17T03:02:51.676Z,45.81
2022-08-17T03:07:49.953Z,45.39
2022-08-17T03:12:47.628Z,45.54
2022-08-17T03:17:44.840Z,45.90
2022-08-17T03:22:53.068Z,45.93
2022-08-17T03:27:52.014Z,45.94
2022-08-17T03:32:54.641Z,46.14
2022-08-17T03:38:00.556Z,46.08
2022-08-17T03:43:04.466Z,46.28
2022-08-17T03:48:19.962Z,46.49
2022-08-17T03:53:37.429Z,46.91
2022-08-17T03:58:36.921Z,46.77
2022-08-17T04:03:34.808Z,46.68
2022-08-17T04:08:32.715Z,46.58
2022-08-17T04:13:29.702Z,46.48
2022-08-17T04:18:27.545Z,46.13
2022-08-17T04:23:34.125Z,46.14
2022-08-17T04:28:31.161Z,46.03
2022-08-17T04:33:30.446Z,45.62
2022-08-17T04:44:56.502Z,45.78
2022-08-17T04:49:56.240Z,45.49
2022-08-17T04:54:56.080Z,45.17
2022-08-17T04:59:56.189Z,45.00
2022-08-17T05:04:57.797Z,44.78
2022-08-17T05:09:55.947Z,44.72
2022-08-17T05:14:53.841Z,44.19
2022-08-17T05:20:19.511Z,44.16
2022-08-17T05:25:31.657Z,44.12
2022-08-17T05:30:36.158Z,42.88
2022-08-17T05:36:41.658Z,40.41
2022-08-17T05:42:17.200Z,35.92
2022-08-17T05:47:21.849Z,31.44
2022-08-17T05:52:28.435Z,27.51
2022-08-17T05:58:13.018Z,26.63
2022-08-17T06:03:41.399Z,23.63
2022-08-17T12:05:36.318Z,20.28
2022-08-17T12:11:02.058Z,19.60
2022-08-17T12:16:00.581Z,19.38
2022-08-17T12:21:23.564Z,19.62
2022-08-17T12:26:25.567Z,19.90
2022-08-17T12:31:28.334Z,19.69
2022-08-17T12:36:31.270Z,19.58
2022-08-17T12:41:38.734Z,19.65
2022-08-17T12:52:45.691Z,18.60
2022-08-17T12:57:45.464Z,19.26
2022-08-17T13:02:49.463Z,19.04
2022-08-17T13:08:01.542Z,18.93
2022-08-17T13:13:03.936Z,18.70
2022-08-17T13:18:07.569Z,19.65
2022-08-17T13:23:20.997Z,18.81
2022-08-17T13:28:30.755Z,19.45
2022-08-17T13:33:44.743Z,18.73
2022-08-17T13:38:51.574Z,18.63
2022-08-17T13:43:54.970Z,18.84
2022-08-17T13:49:05.235Z,18.66
2022-08-17T13:54:50.775Z,19.33
2022-08-17T14:00:07.516Z,19.17
2022-08-17T14:05:06.542Z,20.59
2022-08-17T14:10:12.880Z,21.40
2022-08-17T14:15:19.892Z,21.41
2022-08-17T14:20:20.823Z,21.75
2022-08-17T14:25:21.564Z,21.84
2022-08-17T14:30:19.654Z,22.04
2022-08-17T14:35:16.804Z,21.92
2022-08-17T14:40:53.712Z,22.40
2022-08-17T14:51:47.032Z,20.55
2022-08-17T14:56:46.658Z,20.20
2022-08-17T15:01:54.855Z,19.45
2022-08-17T15:06:59.838Z,19.30
2022-08-17T15:11:59.752Z,19.46
2022-08-17T15:16:57.556Z,19.80
2022-08-17T15:21:54.921Z,20.23
2022-08-17T15:26:55.053Z,20.97
2022-08-17T15:31:52.001Z,21.49
2022-08-17T15:36:49.756Z,21.51
2022-08-17T15:41:58.132Z,21.54
2022-08-17T15:46:55.790Z,22.00
2022-08-17T15:51:53.485Z,22.86
2022-08-17T15:57:22.346Z,23.37
2022-08-17T16:03:45.220Z,23.96
2022-08-17T16:07:52.926Z,24.62
2022-08-17T16:12:51.060Z,25.07
2022-08-17T16:17:51.289Z,25.74
2022-08-17T16:23:00.592Z,25.70
2022-08-17T16:28:06.849Z,26.45
2022-08-17T16:33:16.371Z,26.38
2022-08-17T16:38:14.210Z,26.57
2022-08-17T16:43:35.285Z,26.24
2022-08-17T16:48:33.012Z,26.52
2022-08-17T16:53:30.796Z,26.38
2022-08-17T16:58:53.924Z,26.51
2022-08-17T17:03:58.214Z,27.04
2022-08-17T17:09:00.297Z,27.42
2022-08-17T17:14:15.269Z,28.06
2022-08-17T17:19:26.343Z,28.16
2022-08-17T17:24:40.471Z,29.25
2022-08-17T17:29:55.869Z,29.40
2022-08-17T17:35:01.605Z,30.13
2022-08-17T17:40:06.984Z,30.32
2022-08-17T17:45:11.899Z,30.95
2022-08-17T17:50:10.024Z,30.91
2022-08-17T17:55:20.456Z,32.11
2022-08-17T18:00:41.222Z,32.25
2022-08-17T18:06:13.431Z,32.66
2022-08-17T18:11:34.740Z,32.52
2022-08-17T18:16:33.007Z,33.03
2022-08-17T18:21:37.301Z,33.11
2022-08-17T18:26:51.357Z,33.28
2022-08-17T18:32:11.029Z,33.31
2022-08-17T18:37:11.807Z,32.84
2022-08-17T18:42:27.305Z,32.52
2022-08-17T18:47:26.273Z,33.15
2022-08-17T18:52:27.091Z,33.13
2022-08-17T18:57:31.727Z,32.67
2022-08-17T19:02:53.007Z,33.13
2022-08-17T19:07:50.308Z,33.36
2022-08-17T19:12:55.088Z,33.64
2022-08-17T19:18:04.522Z,34.00
2022-08-17T19:23:13.212Z,34.33
2022-08-17T19:28:22.526Z,34.70
2022-08-17T19:33:19.734Z,35.10
2022-08-17T19:38:29.133Z,35.17
2022-08-17T19:43:39.854Z,34.81
2022-08-17T19:48:58.961Z,35.69
2022-08-17T19:54:06.386Z,35.53
2022-08-17T19:59:13.230Z,35.70
2022-08-17T20:04:19.518Z,36.27
2022-08-17T20:09:23.037Z,36.40
2022-08-17T20:14:51.717Z,36.57
2022-08-17T20:19:57.708Z,37.48
2022-08-17T20:25:05.748Z,37.68
2022-08-17T20:30:09.832Z,38.15
2022-08-17T20:35:23.204Z,38.03
2022-08-17T20:40:26.822Z,38.45
2022-08-17T20:45:55.934Z,38.50
2022-08-17T20:50:58.383Z,39.10
2022-08-17T20:55:55.392Z,39.58
2022-08-17T21:01:13.345Z,39.31
2022-08-17T21:06:17.521Z,39.87
2022-08-17T21:12:03.262Z,40.37
2022-08-17T21:17:14.355Z,40.54
2022-08-17T21:22:27.960Z,40.89
2022-08-17T21:27:40.447Z,40.80
2022-08-17T21:32:41.806Z,41.10
2022-08-17T21:37:41.966Z,41.14
2022-08-17T21:42:47.248Z,41.22
2022-08-17T21:47:49.861Z,41.65
2022-08-17T21:52:49.124Z,41.73
2022-08-17T21:58:13.378Z,42.27
2022-08-17T22:03:21.075Z,42.56
2022-08-17T22:08:20.257Z,42.40
2022-08-17T22:13:22.139Z,42.08
2022-08-17T22:18:26.893Z,41.69
2022-08-17T22:23:45.325Z,41.02
2022-08-17T22:28:48.800Z,41.91
2022-08-17T22:33:50.444Z,42.01
2022-08-17T22:38:47.681Z,42.18
2022-08-17T22:43:47.764Z,42.50
2022-08-17T22:48:51.240Z,42.54
2022-08-17T22:54:09.209Z,42.87
2022-08-17T22:59:21.910Z,42.74
2022-08-17T23:04:36.621Z,44.05
2022-08-17T23:09:34.068Z,45.42
2022-08-17T23:14:31.144Z,45.78
2022-08-17T23:19:30.758Z,46.54
2022-08-17T23:24:30.889Z,47.95
2022-08-17T23:29:28.776Z,50.95
2022-08-17T23:34:27.451Z,53.38
2022-08-17T23:39:28.168Z,54.68
2022-08-17T23:44:26.482Z,55.62
2022-08-17T23:49:24.555Z,54.30
2022-08-17T23:54:24.446Z,54.30
2022-08-17T23:59:23.132Z,52.89
